Pagina principale
METAR-TAF:

METAR-TAF

Aeroporti :

Aeroporto di Bari-Palese

Bari, Italia

latitudine: 41-08N, longitudine: 016-47E, altezza: 34 m

Osservazione

Il bollettino è stato emesso 15 minuti fa, alle 22:20 UTC
Vento 12 kt da sud con raffiche fino a 24 kt
Temperature 17°C
Umidità 77%
Pressione 1004 hPa
Visibilità 10 km o più
Nubi sparse ad un'altezza di 4000 ft

METAR: LIBD 192220Z 19012G24KT 9999 SCT040 17/13 Q1004

Ora: 23:35 (22:35 UTC)

Previsione

Il bollettino è stato emesso 5 ore e 11 minuti fa, alle 17:24 UTC
Previsione valida dal 19 alle 18 UTC al 20 alle 18 UTC
Vento 16 kt da sud
Visibilità 10 km o più
Nubi sparse ad un'altezza di 3000 ft
Temporaneamente
dal 19 alle 18 UTC al 20 alle 03 UTC
pioggia

TAF: LIBD 191724Z 1918/2018 18016KT 9999 SCT030 TEMPO 1918/2003 RA

Osservazioni e previsioni meteorologiche di più di 4000 aeroporti (messaggi METAR e TAF).

Le stazioni disponibili sono rappresentate dai dischi gialli e rossi sulla carta.

Puntare il mouse per vedere il nome della stazione.

Clicca sopra per visualizzare le osservazioni e previsioni meteorologiche.

Per cambiare la mappa : fare clic sui pulsanti verdi con una croce nera per ingrandire, il pulsante verde con un trattino per diminuire, o sulla freccia verde per le mappe adiacenti.


METAR-TAF: